createdAt,value
2022-11-24T00:05:39.889Z,14.60
2022-11-24T00:12:25.380Z,9.35
2022-11-24T00:19:19.469Z,13.88
2022-11-24T00:26:14.643Z,12.95
2022-11-24T00:33:00.303Z,15.13
2022-11-24T00:39:48.926Z,9.52
2022-11-24T00:46:34.583Z,13.20
2022-11-24T00:53:20.080Z,20.45
2022-11-24T01:00:10.596Z,16.27
2022-11-24T01:06:56.026Z,14.48
2022-11-24T01:13:41.604Z,18.23
2022-11-24T01:20:29.675Z,11.10
2022-11-24T01:27:15.261Z,13.82
2022-11-24T01:34:00.926Z,14.65
2022-11-24T01:40:49.121Z,15.38
2022-11-24T01:47:40.834Z,11.07
2022-11-24T01:54:32.665Z,13.65
2022-11-24T02:01:21.405Z,13.70
2022-11-24T02:08:08.011Z,15.35
2022-11-24T02:14:54.263Z,17.70
2022-11-24T02:21:42.558Z,12.27
2022-11-24T02:28:33.284Z,15.02
2022-11-24T02:35:20.153Z,13.77
2022-11-24T02:48:56.491Z,16.63
2022-11-24T02:55:41.966Z,12.02
2022-11-24T03:02:27.744Z,12.10
2022-11-24T03:09:15.891Z,12.27
2022-11-24T03:16:01.690Z,16.33
2022-11-24T03:22:47.064Z,8.57
2022-11-24T03:29:35.099Z,15.75
2022-11-24T03:36:20.952Z,16.13
2022-11-24T03:43:06.587Z,16.92
2022-11-24T04:03:43.359Z,13.27
2022-11-24T04:10:28.927Z,9.95
2022-11-24T04:17:14.357Z,13.30
2022-11-24T04:24:02.382Z,11.55
2022-11-24T04:30:47.999Z,18.13
2022-11-24T04:37:33.425Z,11.55
2022-11-24T04:44:21.650Z,11.85
2022-11-24T04:51:08.758Z,14.50
2022-11-24T04:57:54.285Z,12.95
2022-11-24T05:04:42.774Z,14.90
2022-11-24T05:11:28.238Z,12.48
2022-11-24T05:18:16.859Z,16.67
2022-11-24T05:25:05.177Z,11.43
2022-11-24T05:31:50.689Z,15.40
2022-11-24T05:38:37.192Z,13.82
2022-11-24T05:45:25.870Z,12.47
2022-11-24T05:52:11.267Z,12.63
2022-11-24T05:58:56.836Z,15.60
2022-11-24T06:05:50.326Z,13.27
2022-11-24T06:12:35.814Z,13.75
2022-11-24T06:19:21.212Z,19.55
2022-11-24T06:26:09.900Z,19.80
2022-11-24T06:32:58.612Z,20.77
2022-11-24T06:39:44.149Z,18.73
2022-11-24T06:46:32.105Z,17.98
2022-11-24T06:53:18.165Z,17.40
2022-11-24T07:00:03.669Z,21.33
2022-11-24T07:06:52.064Z,18.95
2022-11-24T07:13:38.331Z,15.48
2022-11-24T07:20:24.189Z,19.67
2022-11-24T07:27:12.476Z,19.33
2022-11-24T07:33:58.965Z,13.02
2022-11-24T07:40:44.409Z,15.13
2022-11-24T07:47:32.446Z,18.67
2022-11-24T07:54:17.889Z,15.60
2022-11-24T08:01:11.993Z,16.75
2022-11-24T08:08:02.157Z,16.10
2022-11-24T08:14:47.614Z,17.55
2022-11-24T08:21:33.108Z,18.48
2022-11-24T08:28:21.260Z,19.60
2022-11-24T08:35:14.067Z,17.17
2022-11-24T08:42:00.312Z,12.55
2022-11-24T08:48:51.976Z,15.23
2022-11-24T08:55:37.561Z,14.77
2022-11-24T09:02:23.256Z,15.93
2022-11-24T09:09:13.083Z,11.27
2022-11-24T09:15:58.505Z,11.40
2022-11-24T09:22:44.320Z,10.45
2022-11-24T09:29:32.965Z,13.70
2022-11-24T09:36:18.626Z,13.90
2022-11-24T09:43:10.909Z,13.32
2022-11-24T09:50:05.115Z,13.85
2022-11-24T09:56:51.391Z,12.02
2022-11-24T10:03:42.062Z,10.17
2022-11-24T10:10:43.763Z,12.98
2022-11-24T10:17:49.916Z,11.68
2022-11-24T10:25:04.229Z,16.05
2022-11-24T10:31:58.568Z,8.75
2022-11-24T10:38:51.468Z,12.75
2022-11-24T10:45:37.932Z,8.27
2022-11-24T10:52:28.684Z,10.73
2022-11-24T10:59:34.355Z,12.70
2022-11-24T11:06:27.621Z,10.15
2022-11-24T11:13:32.539Z,6.95
2022-11-24T11:20:30.211Z,10.60
2022-11-24T11:27:22.692Z,9.82
2022-11-24T11:34:35.478Z,8.88
2022-11-24T11:41:27.159Z,9.43
2022-11-24T11:48:42.326Z,13.45
2022-11-24T11:55:50.066Z,7.32
2022-11-24T12:03:18.454Z,6.65
2022-11-24T12:10:13.775Z,7.57
2022-11-24T12:17:12.606Z,6.20
2022-11-24T12:24:11.476Z,8.60
2022-11-24T12:31:08.803Z,10.25
2022-11-24T12:38:24.703Z,9.13
2022-11-24T12:45:20.191Z,13.93
2022-11-24T12:52:19.435Z,8.85
2022-11-24T12:59:24.326Z,7.18
2022-11-24T13:06:20.794Z,10.95
2022-11-24T13:13:08.346Z,9.55
2022-11-24T13:19:56.364Z,7.80
2022-11-24T13:26:50.186Z,9.65
2022-11-24T13:33:40.646Z,13.10
2022-11-24T13:41:06.273Z,12.68
2022-11-24T13:47:52.554Z,9.82
2022-11-24T13:54:38.143Z,7.88
2022-11-24T14:01:28.590Z,7.23
2022-11-24T14:08:24.887Z,8.43
2022-11-24T14:15:34.141Z,10.67
2022-11-24T14:22:26.844Z,10.52
2022-11-24T14:29:20.255Z,8.40
2022-11-24T14:36:06.275Z,10.55
2022-11-24T14:42:54.728Z,10.60
2022-11-24T14:49:44.919Z,9.05
2022-11-24T14:56:32.994Z,13.25
2022-11-24T15:03:22.212Z,11.95
2022-11-24T15:10:20.621Z,7.72
2022-11-24T15:17:06.659Z,10.65
2022-11-24T15:24:19.644Z,9.40
2022-11-24T15:31:08.728Z,10.48
2022-11-24T15:37:54.433Z,9.65
2022-11-24T15:44:42.436Z,9.85
2022-11-24T15:51:29.904Z,9.57
2022-11-24T15:58:16.358Z,9.32
2022-11-24T16:05:04.936Z,11.80
2022-11-24T16:11:50.511Z,11.85
2022-11-24T16:18:39.767Z,10.27
2022-11-24T16:25:27.982Z,11.38
2022-11-24T16:32:13.434Z,11.65
2022-11-24T16:38:59.793Z,9.88
2022-11-24T16:45:48.392Z,12.68
2022-11-24T16:52:33.857Z,10.63
2022-11-24T16:59:19.332Z,7.00
2022-11-24T17:06:09.680Z,13.68
2022-11-24T17:12:55.119Z,9.70
2022-11-24T17:19:40.522Z,11.20
2022-11-24T17:26:29.471Z,9.82
2022-11-24T17:33:15.247Z,10.65
2022-11-24T17:40:26.941Z,10.43
2022-11-24T17:47:08.774Z,13.43
2022-11-24T17:53:57.329Z,8.55
2022-11-24T18:00:42.822Z,13.48
2022-11-24T18:07:31.560Z,11.90
2022-11-24T18:14:17.573Z,16.10
2022-11-24T18:21:04.990Z,13.70
2022-11-24T18:27:54.057Z,13.75
2022-11-24T18:34:39.707Z,11.80
2022-11-24T18:41:25.156Z,15.05
2022-11-24T18:48:13.190Z,12.15
2022-11-24T18:55:03.811Z,14.95
2022-11-24T19:01:49.320Z,13.68
2022-11-24T19:08:37.913Z,15.25
2022-11-24T19:15:23.336Z,12.35
2022-11-24T19:22:09.366Z,13.15
2022-11-24T19:28:57.344Z,11.73
2022-11-24T19:35:44.373Z,14.57
2022-11-24T19:42:29.820Z,8.13
2022-11-24T19:49:18.187Z,13.20
2022-11-24T19:56:08.248Z,11.70
2022-11-24T20:02:54.386Z,12.38
2022-11-24T20:09:42.765Z,11.73
2022-11-24T20:16:30.542Z,16.42
2022-11-24T20:23:17.247Z,10.27
2022-11-24T20:30:05.620Z,11.25
2022-11-24T20:36:52.884Z,14.05
2022-11-24T20:43:38.814Z,16.20
2022-11-24T20:50:27.020Z,12.40
2022-11-24T20:57:12.435Z,15.45
2022-11-24T21:04:00.298Z,10.07
2022-11-24T21:10:56.817Z,12.70
2022-11-24T21:17:42.492Z,13.32
2022-11-24T21:24:31.044Z,13.57
2022-11-24T21:31:22.867Z,13.45
2022-11-24T21:38:08.701Z,12.00
2022-11-24T21:44:54.150Z,14.85
2022-11-24T21:51:42.152Z,10.60
2022-11-24T21:58:28.889Z,13.32
2022-11-24T22:05:14.470Z,14.52
2022-11-24T22:12:02.862Z,28.17
2022-11-24T22:18:49.613Z,35.38
2022-11-24T22:25:35.901Z,52.50
2022-11-24T22:32:24.287Z,40.15
2022-11-24T22:39:13.277Z,32.72
2022-11-24T22:45:58.774Z,24.83
2022-11-24T22:52:47.234Z,33.92
2022-11-24T22:59:32.612Z,43.28
2022-11-24T23:06:21.282Z,36.22
2022-11-24T23:13:09.338Z,20.23
2022-11-24T23:19:54.808Z,13.77
2022-11-24T23:26:43.912Z,14.48
2022-11-24T23:33:32.384Z,14.10
2022-11-24T23:40:18.908Z,15.75
2022-11-24T23:47:04.320Z,17.10
2022-11-24T23:53:53.373Z,14.38
